Time;durP1;ratioP1;P1;durP2;ratioP2;P2;SDS_P1;SDS_P2;PMS_P1;PMS_P2;Temp;Humidity;BMP_temperature;BMP_pressure;BME280_temperature;BME280_humidity;BME280_pressure;Samples;Min_cycle;Max_cycle;Signal;HPM_P1;HPM_P2
2022/11/26 00:00:56;;;;;;;17.33;16.35;;;5.20;99.90;;;;;;4981514;28;20054;-75
2022/11/26 00:03:21;;;;;;;15.80;15.20;;;5.20;99.90;;;;;;5012269;28;20029;-75
2022/11/26 00:05:50;;;;;;;16.58;15.98;;;5.30;99.90;;;;;;4998990;28;20026;-75
2022/11/26 00:08:26;;;;;;;16.35;15.75;;;5.40;99.90;;;;;;4998890;28;20034;-74
2022/11/26 00:10:52;;;;;;;16.70;16.10;;;5.50;99.90;;;;;;5004077;28;20085;-75
2022/11/26 00:13:24;;;;;;;15.70;15.10;;;5.60;99.90;;;;;;5005553;28;20564;-75
2022/11/26 00:15:50;;;;;;;16.92;16.33;;;5.60;99.90;;;;;;5001509;28;20030;-75
2022/11/26 00:18:17;;;;;;;14.98;14.48;;;5.60;99.90;;;;;;5011592;28;20061;-75
2022/11/26 00:20:43;;;;;;;16.50;15.90;;;5.70;99.90;;;;;;4994371;28;20049;-74
2022/11/26 00:23:21;;;;;;;17.73;16.70;;;5.70;99.90;;;;;;4994286;28;20022;-74
2022/11/26 00:25:59;;;;;;;16.35;15.75;;;5.80;99.90;;;;;;4993473;28;20022;-74
2022/11/26 00:28:36;;;;;;;16.05;15.45;;;5.80;99.90;;;;;;5011614;28;20025;-73
2022/11/26 00:31:12;;;;;;;14.98;14.48;;;5.80;99.90;;;;;;5011395;28;20506;-74
2022/11/26 00:33:38;;;;;;;15.55;14.98;;;5.80;99.90;;;;;;5011967;28;20026;-74
2022/11/26 00:36:30;;;;;;;16.02;15.43;;;5.80;99.90;;;;;;5011578;28;20096;-74
2022/11/26 00:39:05;;;;;;;15.60;15.00;;;5.80;99.90;;;;;;5011605;28;20045;-74
2022/11/26 00:41:34;;;;;;;14.52;14.00;;;5.70;99.90;;;;;;4994273;28;20032;-74
2022/11/26 00:44:00;;;;;;;14.65;14.15;;;5.70;99.90;;;;;;4997863;28;20034;-74
2022/11/26 00:46:26;;;;;;;14.13;13.63;;;5.60;99.90;;;;;;4974851;28;20384;-74
2022/11/26 00:48:51;;;;;;;15.80;15.10;;;5.50;99.90;;;;;;4991892;28;20105;-74
2022/11/26 00:51:22;;;;;;;15.73;15.13;;;5.60;99.90;;;;;;4992155;28;20034;-74
2022/11/26 00:53:48;;;;;;;16.35;15.65;;;5.60;99.90;;;;;;4992028;28;20027;-74
2022/11/26 00:56:17;;;;;;;14.73;14.23;;;5.60;99.90;;;;;;4991899;28;20480;-74
2022/11/26 00:58:44;;;;;;;16.00;15.40;;;5.70;99.90;;;;;;4989222;28;20680;-75
2022/11/26 01:01:16;;;;;;;15.55;14.95;;;5.70;99.90;;;;;;5011596;28;20069;-75
2022/11/26 01:03:42;;;;;;;15.75;15.15;;;5.80;99.90;;;;;;4998433;28;20492;-74
2022/11/26 01:06:16;;;;;;;16.70;16.10;;;5.80;99.90;;;;;;5011392;28;20053;-74
2022/11/26 01:08:42;;;;;;;15.43;14.82;;;5.80;99.90;;;;;;4994480;28;20030;-75
2022/11/26 01:11:12;;;;;;;17.45;16.85;;;5.80;99.90;;;;;;4992024;28;20026;-75
2022/11/26 01:13:38;;;;;;;17.73;16.92;;;5.90;99.90;;;;;;4991493;28;20026;-75
2022/11/26 01:16:14;;;;;;;18.10;16.50;;;5.90;99.90;;;;;;5000791;28;20665;-75
2022/11/26 01:18:40;;;;;;;16.58;15.98;;;5.90;99.90;;;;;;4996739;28;20037;-75
2022/11/26 01:21:09;;;;;;;16.90;16.30;;;5.80;99.90;;;;;;5003612;28;20030;-75
2022/11/26 01:23:35;;;;;;;19.05;18.35;;;5.80;99.90;;;;;;5011418;28;20022;-75
2022/11/26 01:26:00;;;;;;;16.73;16.13;;;5.80;99.90;;;;;;5011367;28;20396;-75
2022/11/26 01:28:26;;;;;;;16.98;16.38;;;5.80;99.90;;;;;;5011054;28;20038;-76
2022/11/26 01:30:51;;;;;;;16.88;16.27;;;5.90;99.90;;;;;;5011329;28;20026;-76
2022/11/26 01:33:17;;;;;;;15.40;14.80;;;5.90;99.90;;;;;;5011029;28;20037;-75
2022/11/26 01:35:42;;;;;;;17.27;16.58;;;5.90;99.90;;;;;;5011134;28;20034;-75
2022/11/26 01:38:14;;;;;;;16.27;15.68;;;5.90;99.90;;;;;;5012847;28;20036;-76
2022/11/26 01:41:07;;;;;;;15.52;14.93;;;5.90;99.90;;;;;;4997337;28;20072;-76
2022/11/26 01:43:40;;;;;;;16.88;16.27;;;5.90;99.90;;;;;;4997054;28;20022;-76
2022/11/26 01:46:14;;;;;;;16.25;15.65;;;5.90;99.90;;;;;;5014508;28;20506;-74
2022/11/26 01:48:39;;;;;;;17.10;16.50;;;5.90;99.90;;;;;;4996970;28;20116;-74
2022/11/26 01:51:07;;;;;;;16.33;15.73;;;5.90;99.90;;;;;;5014543;28;20583;-74
2022/11/26 01:53:53;;;;;;;17.98;17.30;;;5.90;99.90;;;;;;5014524;28;20053;-75
2022/11/26 01:56:29;;;;;;;17.88;17.23;;;5.90;99.90;;;;;;4996879;28;20121;-74
2022/11/26 01:59:17;;;;;;;18.88;18.17;;;6.00;99.90;;;;;;4992871;28;20163;-75
2022/11/26 02:01:42;;;;;;;17.70;17.10;;;6.00;99.90;;;;;;4994788;28;20080;-75
2022/11/26 02:04:16;;;;;;;17.17;16.58;;;6.30;99.90;;;;;;4994835;28;20026;-74
2022/11/26 02:06:44;;;;;;;17.40;16.80;;;6.00;99.90;;;;;;5007758;28;20022;-75
2022/11/26 02:09:11;;;;;;;19.33;18.63;;;5.90;99.90;;;;;;5002607;28;20041;-75
2022/11/26 02:11:37;;;;;;;19.08;18.38;;;6.00;99.90;;;;;;5000948;28;20031;-75
2022/11/26 02:14:08;;;;;;;23.13;21.88;;;6.00;99.90;;;;;;4988736;28;20053;-75
2022/11/26 02:16:43;;;;;;;18.23;17.52;;;6.00;99.90;;;;;;5007599;28;20025;-75
2022/11/26 02:19:21;;;;;;;17.48;16.88;;;6.00;99.90;;;;;;4986412;28;20022;-75
2022/11/26 02:21:53;;;;;;;16.77;16.17;;;5.90;99.90;;;;;;4991959;28;20022;-74
2022/11/26 02:24:49;;;;;;;17.25;16.65;;;5.90;99.90;;;;;;4988692;28;20128;-75
2022/11/26 02:27:52;;;;;;;18.98;18.27;;;5.90;99.90;;;;;;4986768;28;20029;-75
2022/11/26 02:30:18;;;;;;;18.55;17.85;;;5.90;99.90;;;;;;5002892;28;20506;-75
2022/11/26 02:33:12;;;;;;;18.50;17.80;;;5.90;99.90;;;;;;5000469;28;20038;-75
2022/11/26 02:35:45;;;;;;;19.30;18.60;;;5.90;99.90;;;;;;4982957;28;20050;-75
2022/11/26 02:38:16;;;;;;;18.30;17.60;;;5.90;99.90;;;;;;5000516;28;20075;-75
2022/11/26 02:40:41;;;;;;;18.92;18.23;;;5.90;99.90;;;;;;4983409;28;20380;-75
2022/11/26 02:43:07;;;;;;;17.95;17.27;;;5.90;99.90;;;;;;5013735;28;20028;-75
2022/11/26 02:45:37;;;;;;;23.40;22.45;;;6.00;99.90;;;;;;5000190;28;20595;-75
2022/11/26 02:48:10;;;;;;;19.23;18.52;;;6.00;99.90;;;;;;5013476;28;20041;-74
2022/11/26 02:50:42;;;;;;;19.45;18.75;;;6.00;99.90;;;;;;5012637;28;20022;-74
2022/11/26 02:53:09;;;;;;;18.30;17.60;;;6.00;99.90;;;;;;5004529;28;20145;-74
2022/11/26 02:55:40;;;;;;;17.60;17.00;;;6.00;99.90;;;;;;5009261;28;20038;-74
2022/11/26 02:58:06;;;;;;;18.30;17.60;;;6.00;99.90;;;;;;5003682;28;20027;-76
2022/11/26 03:00:35;;;;;;;17.90;17.27;;;6.10;99.90;;;;;;5006748;28;20443;-76
2022/11/26 03:03:21;;;;;;;16.25;15.65;;;6.10;99.90;;;;;;5003942;28;20450;-76
2022/11/26 03:05:49;;;;;;;21.15;20.35;;;6.10;99.90;;;;;;4982475;28;20506;-75
2022/11/26 03:08:15;;;;;;;17.27;16.67;;;6.10;99.90;;;;;;4982632;28;20041;-74
2022/11/26 03:10:41;;;;;;;18.60;17.90;;;6.00;99.90;;;;;;5006507;28;20054;-73
2022/11/26 03:13:07;;;;;;;18.08;17.40;;;6.00;99.90;;;;;;5006602;28;20453;-74
2022/11/26 03:15:32;;;;;;;18.85;18.15;;;6.00;99.90;;;;;;4988936;28;20026;-73
2022/11/26 03:17:58;;;;;;;17.08;16.48;;;6.00;99.90;;;;;;5006228;28;20025;-75
2022/11/26 03:20:23;;;;;;;17.10;16.50;;;6.00;99.90;;;;;;5012910;28;20030;-75
2022/11/26 03:22:49;;;;;;;17.98;17.27;;;5.90;99.90;;;;;;4982510;28;20072;-76
2022/11/26 03:25:15;;;;;;;17.90;17.23;;;5.90;99.90;;;;;;4994933;28;20443;-74
2022/11/26 03:27:40;;;;;;;19.10;18.40;;;6.00;99.90;;;;;;4981675;28;20030;-74
2022/11/26 03:30:07;;;;;;;16.40;15.80;;;6.00;99.90;;;;;;4999914;28;20522;-75
2022/11/26 03:32:32;;;;;;;15.68;15.07;;;5.90;99.90;;;;;;5012605;28;20077;-74
2022/11/26 03:34:58;;;;;;;17.55;16.95;;;5.90;99.90;;;;;;4999556;28;20084;-75
2022/11/26 03:37:24;;;;;;;17.63;17.02;;;5.90;99.90;;;;;;5012599;28;20025;-74
2022/11/26 03:39:49;;;;;;;16.80;16.20;;;5.80;99.90;;;;;;5006410;28;20034;-75
2022/11/26 03:42:15;;;;;;;18.48;17.77;;;5.90;99.90;;;;;;5006163;28;20262;-73
2022/11/26 03:44:40;;;;;;;16.40;15.80;;;6.00;99.90;;;;;;5012321;28;20083;-74
2022/11/26 03:47:06;;;;;;;17.38;16.77;;;6.00;99.90;;;;;;4994607;28;20036;-74
2022/11/26 03:49:31;;;;;;;16.77;16.17;;;6.00;99.90;;;;;;4981906;28;20109;-74
2022/11/26 03:51:57;;;;;;;16.60;16.00;;;6.00;99.90;;;;;;5000310;28;20030;-73
2022/11/26 03:54:22;;;;;;;18.60;17.90;;;5.90;99.90;;;;;;5007260;28;20558;-73
2022/11/26 03:56:48;;;;;;;18.17;17.48;;;6.00;99.90;;;;;;5006934;28;20480;-74
2022/11/26 03:59:13;;;;;;;17.65;17.02;;;6.00;99.90;;;;;;5001148;28;20054;-73
2022/11/26 04:01:39;;;;;;;16.88;16.27;;;6.00;99.90;;;;;;5012045;28;20026;-73
2022/11/26 04:04:05;;;;;;;17.75;17.13;;;6.10;99.90;;;;;;4992784;28;20023;-74
2022/11/26 04:06:30;;;;;;;16.42;15.82;;;6.00;99.90;;;;;;5005216;28;20387;-74
2022/11/26 04:08:56;;;;;;;15.73;15.13;;;6.00;99.90;;;;;;4992896;28;20032;-74
2022/11/26 04:11:21;;;;;;;15.02;14.50;;;6.00;99.90;;;;;;4987727;28;20488;-75
2022/11/26 04:13:47;;;;;;;17.20;16.60;;;5.90;99.90;;;;;;4998820;28;20380;-74
2022/11/26 04:16:12;;;;;;;17.58;16.98;;;5.90;99.90;;;;;;5012136;28;20061;-74
2022/11/26 04:18:38;;;;;;;19.90;19.20;;;5.90;99.90;;;;;;5011795;28;20042;-75
2022/11/26 04:21:07;;;;;;;17.55;16.95;;;5.80;99.90;;;;;;4999649;28;20029;-73
2022/11/26 04:23:34;;;;;;;18.42;17.73;;;5.90;99.90;;;;;;5005737;28;20508;-73
2022/11/26 04:25:59;;;;;;;22.70;21.63;;;5.90;99.90;;;;;;5005921;28;20037;-73
2022/11/26 04:28:25;;;;;;;16.63;16.02;;;5.90;99.90;;;;;;5011454;28;20033;-75
2022/11/26 04:30:51;;;;;;;15.77;15.18;;;6.00;99.90;;;;;;5012043;28;20038;-74
2022/11/26 04:33:16;;;;;;;15.90;15.30;;;5.90;99.90;;;;;;4994418;28;20080;-75
2022/11/26 04:35:42;;;;;;;15.98;15.38;;;5.90;99.90;;;;;;5011789;28;20149;-75
2022/11/26 04:38:07;;;;;;;40.67;23.52;;;6.00;99.90;;;;;;5011612;28;20068;-73
2022/11/26 04:40:33;;;;;;;17.58;16.75;;;6.00;99.90;;;;;;5011669;28;20105;-73
2022/11/26 04:42:59;;;;;;;16.40;15.80;;;6.00;99.90;;;;;;5011776;28;20399;-73
2022/11/26 04:45:24;;;;;;;16.70;16.10;;;6.00;99.90;;;;;;4994177;28;20029;-74
2022/11/26 04:47:50;;;;;;;16.13;15.52;;;6.00;99.90;;;;;;5011454;28;20404;-74
2022/11/26 04:50:15;;;;;;;16.38;15.77;;;6.00;99.90;;;;;;5011738;28;20080;-73
2022/11/26 04:52:41;;;;;;;16.52;15.93;;;6.00;99.90;;;;;;4981242;28;20030;-75
2022/11/26 04:55:07;;;;;;;17.25;16.65;;;6.00;99.90;;;;;;4994185;28;20025;-74
2022/11/26 04:57:32;;;;;;;16.30;15.70;;;6.00;99.90;;;;;;5011291;28;20030;-74
2022/11/26 04:59:58;;;;;;;16.30;15.70;;;5.90;99.90;;;;;;4981780;28;20038;-74
2022/11/26 05:02:23;;;;;;;17.05;16.45;;;6.00;99.90;;;;;;4997690;28;20037;-74
2022/11/26 05:04:49;;;;;;;17.80;17.13;;;5.90;99.90;;;;;;5011613;28;20663;-73
2022/11/26 05:07:14;;;;;;;16.35;15.75;;;5.80;99.90;;;;;;5005302;28;20033;-73
2022/11/26 05:09:40;;;;;;;15.23;14.70;;;5.90;99.90;;;;;;5004279;28;20026;-74
2022/11/26 05:12:06;;;;;;;16.13;15.52;;;5.80;99.90;;;;;;5011887;28;20028;-75
2022/11/26 05:14:31;;;;;;;15.65;15.05;;;5.90;99.90;;;;;;5015328;28;20034;-75
2022/11/26 05:16:57;;;;;;;16.48;15.88;;;5.90;99.90;;;;;;4997244;28;20132;-76
2022/11/26 05:19:22;;;;;;;17.08;16.48;;;5.90;99.90;;;;;;5015269;28;20022;-75
2022/11/26 05:21:48;;;;;;;16.52;15.93;;;5.90;99.90;;;;;;5014979;28;20488;-75
2022/11/26 05:24:14;;;;;;;16.23;15.63;;;5.90;99.90;;;;;;5002561;28;20022;-75
2022/11/26 05:26:39;;;;;;;15.00;14.50;;;5.90;99.90;;;;;;5013588;28;20687;-75
2022/11/26 05:29:05;;;;;;;17.05;16.45;;;5.90;99.90;;;;;;5015607;28;20034;-76
2022/11/26 05:31:30;;;;;;;22.25;21.35;;;5.80;99.90;;;;;;5014971;28;20022;-74
2022/11/26 05:33:56;;;;;;;16.83;16.23;;;5.90;99.90;;;;;;5014894;28;20076;-75
2022/11/26 05:36:21;;;;;;;17.15;16.55;;;5.90;99.90;;;;;;5014594;28;20129;-75
2022/11/26 05:38:47;;;;;;;16.60;16.00;;;5.80;99.90;;;;;;5003467;28;20050;-75
2022/11/26 05:41:13;;;;;;;16.40;15.80;;;5.90;99.90;;;;;;4999448;28;20033;-74
2022/11/26 05:43:38;;;;;;;16.95;16.35;;;5.80;99.90;;;;;;5014693;28;20109;-75
2022/11/26 05:46:06;;;;;;;18.20;17.52;;;5.90;99.90;;;;;;4997202;28;20077;-75
2022/11/26 05:48:31;;;;;;;19.65;18.90;;;5.90;99.90;;;;;;5006031;28;20157;-74
2022/11/26 05:50:58;;;;;;;16.90;16.30;;;5.90;99.90;;;;;;4997036;28;20104;-74
2022/11/26 05:53:24;;;;;;;16.55;15.95;;;6.00;99.90;;;;;;4977488;28;20432;-74
2022/11/26 05:55:50;;;;;;;18.65;17.95;;;6.00;99.90;;;;;;5012674;28;20701;-73
2022/11/26 05:58:16;;;;;;;17.90;17.23;;;6.00;99.90;;;;;;5002727;28;20030;-74
2022/11/26 06:00:41;;;;;;;17.40;16.80;;;6.00;99.90;;;;;;4994810;28;20029;-75
2022/11/26 06:03:07;;;;;;;15.52;14.93;;;5.90;99.90;;;;;;5006248;28;20104;-73
2022/11/26 06:05:32;;;;;;;17.45;16.85;;;5.90;99.90;;;;;;5009598;28;20026;-75
2022/11/26 06:07:58;;;;;;;19.23;18.52;;;5.90;99.90;;;;;;5005837;28;20030;-74
2022/11/26 06:10:24;;;;;;;16.60;16.00;;;5.90;99.90;;;;;;5014349;28;20030;-74
2022/11/26 06:12:49;;;;;;;17.17;16.58;;;5.80;99.90;;;;;;5014259;28;20026;-74
2022/11/26 06:15:15;;;;;;;17.02;16.42;;;5.90;99.90;;;;;;4992137;28;20022;-75
2022/11/26 06:17:40;;;;;;;16.92;16.33;;;5.90;99.90;;;;;;4976798;28;20022;-74
2022/11/26 06:20:06;;;;;;;17.48;16.88;;;5.90;99.90;;;;;;5007746;28;20069;-74
2022/11/26 06:22:37;;;;;;;16.65;16.05;;;5.90;99.90;;;;;;5005065;28;20088;-74
2022/11/26 06:25:03;;;;;;;19.17;18.38;;;6.00;99.90;;;;;;5013926;28;20483;-74
2022/11/26 06:27:31;;;;;;;19.73;19.02;;;6.00;99.90;;;;;;5013870;28;20052;-75
2022/11/26 06:29:56;;;;;;;17.77;17.13;;;6.00;99.90;;;;;;5013889;28;20109;-75
2022/11/26 06:32:22;;;;;;;16.50;15.90;;;6.10;99.90;;;;;;5001681;28;20053;-74
2022/11/26 06:34:47;;;;;;;16.30;15.70;;;6.10;99.90;;;;;;4989655;28;20065;-75
2022/11/26 06:37:13;;;;;;;16.95;16.35;;;6.10;99.90;;;;;;5006257;28;20040;-75
2022/11/26 06:39:38;;;;;;;17.58;16.98;;;6.00;99.90;;;;;;5013576;28;20025;-74
2022/11/26 06:42:04;;;;;;;18.48;17.77;;;6.10;99.90;;;;;;4984560;28;20026;-74
2022/11/26 06:44:30;;;;;;;17.80;17.20;;;6.10;99.90;;;;;;5012075;28;20092;-75
2022/11/26 06:46:55;;;;;;;17.40;16.80;;;6.30;99.90;;;;;;5013379;28;20062;-75
2022/11/26 06:49:21;;;;;;;17.45;16.85;;;6.10;99.90;;;;;;5000488;28;20091;-75
2022/11/26 06:51:46;;;;;;;21.25;20.38;;;6.10;99.90;;;;;;5013568;28;20113;-74
2022/11/26 06:54:12;;;;;;;17.80;17.20;;;6.10;99.90;;;;;;5013479;28;20038;-75
2022/11/26 06:56:38;;;;;;;19.20;18.50;;;6.10;99.90;;;;;;4995655;28;20037;-76
2022/11/26 06:59:03;;;;;;;20.52;19.73;;;6.00;99.90;;;;;;4995622;28;20050;-73
2022/11/26 07:01:29;;;;;;;23.98;23.02;;;6.10;99.90;;;;;;5013443;28;20496;-75
2022/11/26 07:03:55;;;;;;;19.92;19.23;;;6.10;99.90;;;;;;4991259;28;20022;-75
2022/11/26 07:06:23;;;;;;;18.65;17.95;;;6.10;99.90;;;;;;5004369;28;20030;-75
2022/11/26 07:08:51;;;;;;;19.52;18.83;;;6.00;99.90;;;;;;5012659;28;20101;-74
2022/11/26 07:11:17;;;;;;;19.08;18.38;;;6.00;99.90;;;;;;5012922;28;20045;-75
2022/11/26 07:13:43;;;;;;;18.67;17.98;;;6.10;99.90;;;;;;4999748;28;20022;-75
2022/11/26 07:16:09;;;;;;;19.75;19.05;;;6.10;99.90;;;;;;4995368;28;20044;-74
2022/11/26 07:18:35;;;;;;;19.10;18.40;;;6.20;99.90;;;;;;5008309;28;20022;-74
2022/11/26 07:21:14;;;;;;;16.67;16.08;;;6.10;99.90;;;;;;5004028;28;20021;-75
2022/11/26 07:23:40;;;;;;;19.23;18.52;;;6.20;99.90;;;;;;5012869;28;20018;-75
2022/11/26 07:26:07;;;;;;;25.33;23.40;;;6.20;99.90;;;;;;5012695;28;20391;-75
2022/11/26 07:28:34;;;;;;;18.45;17.75;;;6.10;99.90;;;;;;5012779;28;20022;-75
2022/11/26 07:31:01;;;;;;;19.50;18.80;;;6.00;99.90;;;;;;4999890;28;20022;-74
2022/11/26 07:33:27;;;;;;;17.50;16.90;;;6.00;99.90;;;;;;5012689;28;20026;-75
2022/11/26 07:35:53;;;;;;;17.98;17.02;;;6.00;99.90;;;;;;4994630;28;20447;-75
2022/11/26 07:38:19;;;;;;;18.35;17.65;;;5.90;99.90;;;;;;5012403;28;20029;-75
2022/11/26 07:40:44;;;;;;;16.45;15.85;;;5.90;99.90;;;;;;4998342;28;20027;-73
2022/11/26 07:43:10;;;;;;;17.88;17.17;;;5.90;99.90;;;;;;5000203;28;20022;-75
2022/11/26 07:45:36;;;;;;;18.40;17.70;;;6.00;99.90;;;;;;4994263;28;20025;-75
2022/11/26 07:48:03;;;;;;;17.00;16.40;;;6.10;99.90;;;;;;4999305;28;20034;-75
2022/11/26 07:50:29;;;;;;;18.67;17.95;;;6.00;99.90;;;;;;5012321;28;20026;-76
2022/11/26 07:52:54;;;;;;;16.48;15.88;;;6.00;99.90;;;;;;4994909;28;20030;-76
2022/11/26 07:55:20;;;;;;;17.17;16.58;;;6.00;99.90;;;;;;4981129;28;20412;-74
2022/11/26 07:57:45;;;;;;;17.33;16.63;;;6.10;99.90;;;;;;4974685;28;20392;-75
2022/11/26 08:00:12;;;;;;;17.13;16.52;;;6.10;99.90;;;;;;4988667;28;20030;-75
2022/11/26 08:02:37;;;;;;;17.25;16.58;;;6.10;99.90;;;;;;5012138;28;20106;-76
2022/11/26 08:05:03;;;;;;;18.67;17.98;;;6.20;99.90;;;;;;4981562;28;20117;-74
2022/11/26 08:07:29;;;;;;;18.02;17.33;;;6.20;99.90;;;;;;5011443;28;20026;-75
2022/11/26 08:09:54;;;;;;;17.67;17.08;;;6.20;99.90;;;;;;5011601;28;20105;-75
2022/11/26 08:12:20;;;;;;;17.77;17.05;;;6.30;99.90;;;;;;4994577;28;20050;-75
2022/11/26 08:14:45;;;;;;;18.98;18.27;;;6.20;99.90;;;;;;4998744;28;20026;-75
2022/11/26 08:17:11;;;;;;;23.85;22.00;;;6.10;99.90;;;;;;5010987;28;20109;-75
2022/11/26 08:19:36;;;;;;;16.70;15.85;;;6.10;99.90;;;;;;5011803;28;20088;-74
2022/11/26 08:22:02;;;;;;;18.58;17.58;;;6.10;99.90;;;;;;5011905;28;20455;-75
2022/11/26 08:24:29;;;;;;;17.60;16.90;;;6.10;99.90;;;;;;5012918;28;20392;-75
2022/11/26 08:26:58;;;;;;;18.00;17.30;;;6.00;99.90;;;;;;5015970;28;20018;-75
2022/11/26 08:29:23;;;;;;;18.58;17.88;;;6.00;99.90;;;;;;5016927;28;20021;-74
2022/11/26 08:31:49;;;;;;;15.18;14.48;;;6.00;99.90;;;;;;5011643;28;20022;-75
2022/11/26 08:34:15;;;;;;;17.83;17.20;;;6.00;99.90;;;;;;5011784;28;20510;-75
2022/11/26 08:36:41;;;;;;;17.73;17.02;;;6.10;99.90;;;;;;4993798;28;20511;-75
2022/11/26 08:39:06;;;;;;;21.50;20.60;;;6.00;99.90;;;;;;4992415;28;20022;-74
2022/11/26 08:41:32;;;;;;;19.25;18.45;;;6.10;99.90;;;;;;5000225;28;20022;-74
2022/11/26 08:43:57;;;;;;;19.50;18.60;;;6.10;99.90;;;;;;5014695;28;20029;-75
2022/11/26 08:46:24;;;;;;;19.67;18.88;;;6.10;99.90;;;;;;5011634;28;20169;-74
2022/11/26 08:48:50;;;;;;;18.17;17.48;;;6.00;99.90;;;;;;5003765;28;20050;-75
2022/11/26 08:51:16;;;;;;;20.00;19.10;;;6.10;99.90;;;;;;5027292;28;20430;-74
2022/11/26 08:53:42;;;;;;;18.90;18.20;;;6.00;99.90;;;;;;5022668;28;20503;-75
2022/11/26 08:56:10;;;;;;;19.45;18.60;;;6.00;99.90;;;;;;5022813;28;20036;-76
2022/11/26 08:58:41;;;;;;;19.92;19.20;;;6.10;99.90;;;;;;5003559;28;20026;-75
2022/11/26 09:01:13;;;;;;;18.15;17.45;;;6.10;99.90;;;;;;5022019;28;20041;-75
2022/11/26 09:03:38;;;;;;;20.48;19.67;;;6.10;99.90;;;;;;5015821;28;20025;-75
2022/11/26 09:06:06;;;;;;;20.08;19.27;;;6.10;99.90;;;;;;5005599;28;20021;-75
2022/11/26 09:08:43;;;;;;;21.63;20.73;;;6.00;99.90;;;;;;5015611;28;20132;-76
2022/11/26 09:11:09;;;;;;;20.58;19.77;;;6.00;99.90;;;;;;5002230;28;20030;-77
2022/11/26 09:13:35;;;;;;;23.85;22.80;;;6.10;99.90;;;;;;5011798;28;20030;-76
2022/11/26 09:16:00;;;;;;;19.30;18.60;;;6.00;99.90;;;;;;5014594;28;20033;-75
2022/11/26 09:18:26;;;;;;;21.30;20.40;;;6.00;99.90;;;;;;4993382;28;20030;-76
2022/11/26 09:20:52;;;;;;;21.45;20.65;;;6.00;99.90;;;;;;5006326;28;20026;-76
2022/11/26 09:23:17;;;;;;;20.00;19.20;;;6.00;99.90;;;;;;5015100;28;20026;-76
2022/11/26 09:25:43;;;;;;;21.05;20.25;;;6.00;99.90;;;;;;5015134;28;20057;-76
2022/11/26 09:28:08;;;;;;;22.77;21.60;;;6.00;99.90;;;;;;5014535;28;20112;-75
2022/11/26 09:30:34;;;;;;;19.98;19.25;;;6.10;99.90;;;;;;4997351;28;20133;-76
2022/11/26 09:32:59;;;;;;;26.45;25.17;;;6.00;99.90;;;;;;4997267;28;20483;-76
2022/11/26 09:35:25;;;;;;;21.75;20.95;;;6.10;99.90;;;;;;4997015;28;20045;-74
2022/11/26 09:37:50;;;;;;;19.73;18.92;;;6.00;99.90;;;;;;4997196;28;20038;-75
2022/11/26 09:40:18;;;;;;;21.65;20.85;;;6.10;99.90;;;;;;5085540;23;20508;-74
2022/11/26 09:43:12;;;;;;;21.00;20.20;;;6.10;99.90;;;;;;5070268;28;20104;-75
2022/11/26 09:45:46;;;;;;;20.05;19.35;;;6.10;99.90;;;;;;5067319;28;20021;-75
2022/11/26 09:48:16;;;;;;;20.70;19.90;;;6.10;99.90;;;;;;5069627;28;20040;-75
2022/11/26 09:50:43;;;;;;;20.17;19.08;;;6.20;99.90;;;;;;5051421;28;20109;-75
2022/11/26 09:53:19;;;;;;;24.73;23.75;;;6.20;99.90;;;;;;5044249;28;20521;-75
2022/11/26 09:55:49;;;;;;;20.42;19.48;;;6.10;99.90;;;;;;5050156;28;20033;-75
2022/11/26 09:58:35;;;;;;;18.33;17.63;;;6.00;99.90;;;;;;5045137;28;20026;-74
2022/11/26 10:01:04;;;;;;;21.58;20.67;;;6.10;99.90;;;;;;5053173;28;20367;-74
2022/11/26 10:03:31;;;;;;;20.58;19.77;;;6.10;99.90;;;;;;5040657;28;20033;-75
2022/11/26 10:06:02;;;;;;;20.17;19.33;;;6.10;99.90;;;;;;5049559;28;20033;-74
2022/11/26 10:08:46;;;;;;;20.77;19.88;;;6.10;99.90;;;;;;5047089;28;20036;-74
2022/11/26 10:11:26;;;;;;;18.88;18.17;;;6.20;99.90;;;;;;5046125;28;20033;-75
2022/11/26 10:14:14;;;;;;;19.30;18.58;;;6.20;99.90;;;;;;5041234;28;20083;-74
2022/11/26 10:16:44;;;;;;;19.42;18.73;;;6.40;99.90;;;;;;5048959;28;20029;-74
2022/11/26 10:19:22;;;;;;;21.40;20.33;;;6.40;99.90;;;;;;5033653;28;20502;-74
2022/11/26 10:21:55;;;;;;;18.92;18.17;;;6.50;99.90;;;;;;5047552;28;20433;-75
2022/11/26 10:24:26;;;;;;;19.83;18.80;;;6.40;99.90;;;;;;5034318;28;20017;-75
2022/11/26 10:26:52;;;;;;;18.17;17.30;;;6.60;99.90;;;;;;5053036;28;20032;-75
2022/11/26 10:29:38;;;;;;;23.63;22.58;;;6.60;99.90;;;;;;5049007;28;20033;-74
2022/11/26 10:32:15;;;;;;;23.95;23.05;;;6.70;99.90;;;;;;5042469;28;20021;-75
2022/11/26 10:34:50;;;;;;;19.45;18.65;;;6.70;99.90;;;;;;5035273;28;20450;-74
2022/11/26 10:37:18;;;;;;;21.63;20.83;;;6.80;99.90;;;;;;5045676;28;20021;-75
2022/11/26 10:39:44;;;;;;;20.67;19.77;;;6.70;99.90;;;;;;5034071;28;20272;-75
2022/11/26 10:42:16;;;;;;;22.85;21.95;;;6.70;99.90;;;;;;5033609;28;20029;-74
2022/11/26 10:44:42;;;;;;;19.65;18.70;;;6.70;99.90;;;;;;5040237;28;20032;-75
2022/11/26 10:47:29;;;;;;;20.17;17.15;;;6.70;99.90;;;;;;5039618;28;20029;-75
2022/11/26 10:50:03;;;;;;;18.67;17.98;;;6.70;99.90;;;;;;5051974;28;20025;-75
2022/11/26 10:52:32;;;;;;;17.35;16.45;;;6.60;99.90;;;;;;5039738;28;20035;-75
2022/11/26 10:55:15;;;;;;;19.05;18.15;;;6.70;99.90;;;;;;5051982;28;20128;-75
2022/11/26 10:57:46;;;;;;;20.13;18.98;;;6.60;99.90;;;;;;5039111;28;20532;-75
2022/11/26 11:00:30;;;;;;;19.27;18.38;;;6.70;99.90;;;;;;5039719;28;20113;-75
2022/11/26 11:02:57;;;;;;;17.13;15.95;;;6.60;99.90;;;;;;5043586;28;20021;-75
2022/11/26 11:05:23;;;;;;;18.77;18.08;;;6.60;99.90;;;;;;5044882;28;20029;-75
2022/11/26 11:07:52;;;;;;;17.55;16.20;;;6.70;99.90;;;;;;5042155;28;20025;-75
2022/11/26 11:10:21;;;;;;;15.48;14.80;;;6.90;99.90;;;;;;5048509;28;20107;-75
2022/11/26 11:13:00;;;;;;;18.13;17.42;;;6.90;99.90;;;;;;5043373;28;20029;-75
2022/11/26 11:15:28;;;;;;;17.45;16.85;;;7.00;99.90;;;;;;5038208;28;20025;-75
2022/11/26 11:18:26;;;;;;;15.90;15.13;;;6.90;99.90;;;;;;5047392;28;20115;-75
2022/11/26 11:20:55;;;;;;;16.00;15.40;;;7.00;99.90;;;;;;4999306;28;20033;-75
2022/11/26 11:23:24;;;;;;;17.80;16.63;;;7.00;99.90;;;;;;5037941;28;20414;-75
2022/11/26 11:26:04;;;;;;;15.27;14.57;;;7.10;99.90;;;;;;5051014;28;20116;-75
2022/11/26 11:28:32;;;;;;;15.98;15.38;;;7.10;99.90;;;;;;5031860;28;20544;-74
2022/11/26 11:31:04;;;;;;;15.23;14.63;;;7.00;99.90;;;;;;5044897;28;20025;-75
2022/11/26 11:33:30;;;;;;;16.40;15.80;;;7.10;99.90;;;;;;5040886;28;20084;-75
2022/11/26 11:36:02;;;;;;;13.63;13.13;;;7.20;99.90;;;;;;5039198;28;20595;-75
2022/11/26 11:38:32;;;;;;;15.85;15.25;;;7.20;99.90;;;;;;5042857;28;20299;-74
2022/11/26 11:41:03;;;;;;;16.33;15.73;;;7.20;99.90;;;;;;5047961;28;20029;-75
2022/11/26 11:43:34;;;;;;;14.45;13.95;;;7.40;99.90;;;;;;5052341;28;20458;-75
2022/11/26 11:46:06;;;;;;;14.63;14.13;;;7.40;99.90;;;;;;5064562;28;20510;-75
2022/11/26 11:48:45;;;;;;;15.70;15.10;;;7.50;99.90;;;;;;5038811;28;20025;-75
2022/11/26 11:51:31;;;;;;;18.20;17.50;;;7.20;99.90;;;;;;5039336;28;20499;-75
2022/11/26 11:54:20;;;;;;;17.30;16.67;;;7.20;99.90;;;;;;5037685;28;20078;-75
2022/11/26 11:56:54;;;;;;;14.25;13.75;;;7.10;99.90;;;;;;5039366;28;20033;-75
2022/11/26 11:59:19;;;;;;;16.95;16.35;;;7.10;99.90;;;;;;5049551;28;20541;-75
2022/11/26 12:02:16;;;;;;;14.88;14.38;;;7.20;99.90;;;;;;5045312;28;20044;-74
2022/11/26 12:04:50;;;;;;;18.15;17.45;;;7.40;99.90;;;;;;5041232;28;20025;-75
2022/11/26 12:07:37;;;;;;;17.40;16.80;;;7.50;99.90;;;;;;5050761;28;20057;-74
2022/11/26 12:10:24;;;;;;;16.88;16.27;;;7.60;99.90;;;;;;5050467;28;20678;-74
2022/11/26 12:12:55;;;;;;;15.18;14.55;;;7.70;99.90;;;;;;5043116;28;20083;-74
2022/11/26 12:15:25;;;;;;;11.60;11.10;;;7.40;99.90;;;;;;5038724;28;20017;-75
2022/11/26 12:18:02;;;;;;;11.05;10.65;;;7.20;99.90;;;;;;5039638;28;20048;-76
2022/11/26 12:20:37;;;;;;;11.48;11.07;;;7.40;99.90;;;;;;5039020;28;20484;-75
2022/11/26 12:23:35;;;;;;;12.52;11.93;;;7.40;99.90;;;;;;5048575;28;20442;-75
2022/11/26 12:26:17;;;;;;;13.80;13.27;;;7.40;99.90;;;;;;5052322;28;20021;-76
2022/11/26 12:28:58;;;;;;;11.15;10.75;;;7.40;99.90;;;;;;5042748;28;20514;-77
2022/11/26 12:31:35;;;;;;;10.63;10.23;;;7.40;99.90;;;;;;5043958;28;20061;-76
2022/11/26 12:34:15;;;;;;;12.35;11.95;;;7.40;99.90;;;;;;5043046;28;20040;-76
2022/11/26 12:37:05;;;;;;;8.15;7.85;;;7.40;99.90;;;;;;5043713;28;20032;-76
2022/11/26 12:39:41;;;;;;;11.38;10.98;;;7.30;99.90;;;;;;5044879;28;20082;-76
2022/11/26 12:42:20;;;;;;;12.25;11.80;;;7.20;99.90;;;;;;5044815;28;20029;-76
2022/11/26 12:44:50;;;;;;;11.32;10.93;;;7.20;99.90;;;;;;5031880;28;20033;-76
2022/11/26 12:47:37;;;;;;;13.80;13.30;;;7.20;99.90;;;;;;5046437;28;20403;-76
2022/11/26 12:50:22;;;;;;;;;;;7.40;99.90;;;;;;5052124;28;20017;-75